createdAt,value
2018-11-04T00:00:15.893Z,6.12
2018-11-04T00:00:42.026Z,6.14
2018-11-04T00:01:08.155Z,6.19
2018-11-04T00:01:34.296Z,6.22
2018-11-04T00:02:00.428Z,6.24
2018-11-04T00:02:26.563Z,6.35
2018-11-04T00:02:52.691Z,6.36
2018-11-04T00:03:18.814Z,6.35
2018-11-04T00:03:44.948Z,6.31
2018-11-04T00:04:11.112Z,6.35
2018-11-04T00:04:37.232Z,6.33
2018-11-04T00:05:03.364Z,6.39
2018-11-04T00:05:29.499Z,6.36
2018-11-04T00:05:55.622Z,6.41
2018-11-04T00:06:21.758Z,6.44
2018-11-04T00:06:47.889Z,6.44
2018-11-04T00:07:14.021Z,6.54
2018-11-04T00:07:40.155Z,6.51
2018-11-04T00:08:06.282Z,6.57
2018-11-04T00:08:32.416Z,6.46
2018-11-04T00:08:58.575Z,6.49
2018-11-04T00:09:24.702Z,6.38
2018-11-04T00:09:50.860Z,6.45
2018-11-04T00:10:16.991Z,6.31
2018-11-04T00:10:43.147Z,6.33
2018-11-04T00:11:09.294Z,6.41
2018-11-04T00:11:35.459Z,6.42
2018-11-04T00:12:01.594Z,6.3
2018-11-04T00:12:27.725Z,6.35
2018-11-04T00:12:53.853Z,6.38
2018-11-04T00:13:20.123Z,6.36
2018-11-04T00:13:46.159Z,6.38
2018-11-04T00:14:12.313Z,6.39
2018-11-04T00:14:38.465Z,6.33
2018-11-04T00:15:04.610Z,6.36
2018-11-04T00:15:30.737Z,6.39
2018-11-04T00:15:56.885Z,6.27
2018-11-04T00:16:23.032Z,6.31
2018-11-04T00:16:49.163Z,6.3
2018-11-04T00:17:15.307Z,6.27
2018-11-04T00:17:41.436Z,6.22
2018-11-04T00:18:07.615Z,6.27
2018-11-04T00:18:33.726Z,6.27
2018-11-04T00:18:59.854Z,6.3
2018-11-04T00:19:26.007Z,6.3
2018-11-04T00:19:52.144Z,6.35
2018-11-04T00:20:18.336Z,6.42
2018-11-04T00:20:44.470Z,6.42
2018-11-04T00:21:10.600Z,6.41
2018-11-04T00:21:36.734Z,6.31
2018-11-04T00:22:02.854Z,6.41
2018-11-04T00:22:28.984Z,6.36
2018-11-04T00:22:55.122Z,6.38
2018-11-04T00:23:21.273Z,6.41
2018-11-04T00:23:47.428Z,6.49
2018-11-04T00:24:13.687Z,6.46
2018-11-04T00:24:39.680Z,6.48
2018-11-04T00:25:05.832Z,6.35
2018-11-04T00:25:31.967Z,6.28
2018-11-04T00:25:58.094Z,6.26
2018-11-04T00:26:24.252Z,6.27
2018-11-04T00:26:50.384Z,6.27
2018-11-04T00:27:16.547Z,6.2
2018-11-04T00:27:42.642Z,6.2
2018-11-04T00:28:08.771Z,6.16
2018-11-04T00:28:34.899Z,6.08
2018-11-04T00:29:01.053Z,6.11
2018-11-04T00:29:27.182Z,6.11
2018-11-04T00:29:53.473Z,6.08
2018-11-04T00:30:19.454Z,6.11
2018-11-04T00:30:45.591Z,6.01
2018-11-04T00:31:11.753Z,6.01
2018-11-04T00:31:37.882Z,6.01
2018-11-04T00:32:04.032Z,5.97
2018-11-04T00:32:30.164Z,5.9
2018-11-04T00:32:56.290Z,5.91
2018-11-04T00:33:22.418Z,6.02
2018-11-04T00:33:48.550Z,6.09
2018-11-04T00:34:14.683Z,6.07
2018-11-04T00:34:40.922Z,6.09
2018-11-04T00:35:06.993Z,6.28
2018-11-04T00:35:33.113Z,6.27
2018-11-04T00:35:59.267Z,6.27
2018-11-04T00:36:25.394Z,6.31
2018-11-04T00:36:51.521Z,6.3
2018-11-04T00:37:17.659Z,6.31
2018-11-04T00:37:43.794Z,6.33
2018-11-04T00:38:09.932Z,6.49
2018-11-04T00:38:36.065Z,6.39
2018-11-04T00:39:02.263Z,6.44
2018-11-04T00:39:28.353Z,6.48
2018-11-04T00:39:54.476Z,6.39
2018-11-04T00:40:20.612Z,6.35
2018-11-04T00:40:46.733Z,6.36
2018-11-04T00:41:12.865Z,6.44
2018-11-04T00:41:38.994Z,6.49
2018-11-04T00:42:05.153Z,6.41
2018-11-04T00:42:31.285Z,6.41
2018-11-04T00:42:57.423Z,6.36
2018-11-04T00:43:23.549Z,6.39
2018-11-04T00:43:49.687Z,6.42
2018-11-04T00:44:15.846Z,6.42
2018-11-04T00:44:41.974Z,6.46
2018-11-04T00:45:08.164Z,6.35
2018-11-04T00:45:34.270Z,6.33
2018-11-04T00:46:00.383Z,6.35
2018-11-04T00:46:26.585Z,6.35
2018-11-04T00:46:52.722Z,6.19
2018-11-04T00:47:18.854Z,6.35
2018-11-04T00:47:44.991Z,6.27
2018-11-04T00:48:11.119Z,6.22
2018-11-04T00:48:37.250Z,6.31
2018-11-04T00:49:03.378Z,6.35
2018-11-04T00:49:29.505Z,6.3
2018-11-04T00:49:55.660Z,6.31
2018-11-04T00:50:21.790Z,6.3
2018-11-04T00:50:47.921Z,6.24
2018-11-04T00:51:14.054Z,6.27
2018-11-04T00:51:40.178Z,6.19
2018-11-04T00:52:06.307Z,6.2
2018-11-04T00:52:32.442Z,6.19
2018-11-04T00:52:58.572Z,6.16
2018-11-04T00:53:24.699Z,6.05
2018-11-04T00:53:50.831Z,6.12
2018-11-04T00:54:16.963Z,6.16
2018-11-04T00:54:43.110Z,6.12
2018-11-04T00:55:09.247Z,6.16
2018-11-04T00:55:35.377Z,6.07
2018-11-04T00:56:01.507Z,6.09
2018-11-04T00:56:27.679Z,6.16
2018-11-04T00:56:53.844Z,6.19
2018-11-04T00:57:19.996Z,6.2
2018-11-04T00:57:46.133Z,6.2
2018-11-04T00:58:12.317Z,6.26
2018-11-04T00:58:38.470Z,6.35
2018-11-04T00:59:04.600Z,6.28
2018-11-04T00:59:30.731Z,6.31
2018-11-04T00:59:56.852Z,6.28
2018-11-04T01:00:22.987Z,6.27
2018-11-04T01:00:49.119Z,6.27
2018-11-04T01:01:15.278Z,6.39
2018-11-04T01:01:41.411Z,6.35
2018-11-04T01:02:07.540Z,6.38
2018-11-04T01:02:33.698Z,6.31
2018-11-04T01:02:59.831Z,6.33
2018-11-04T01:03:26.010Z,6.22
2018-11-04T01:03:52.135Z,6.35
2018-11-04T01:04:18.289Z,6.3
2018-11-04T01:04:44.444Z,6.31
2018-11-04T01:05:10.572Z,6.26
2018-11-04T01:05:36.702Z,6.27
2018-11-04T01:06:02.836Z,6.28
2018-11-04T01:06:28.972Z,6.39
2018-11-04T01:06:55.122Z,6.28
2018-11-04T01:07:21.259Z,6.35
2018-11-04T01:07:47.414Z,6.26
2018-11-04T01:08:13.566Z,6.3
2018-11-04T01:08:39.708Z,6.24
2018-11-04T01:09:05.927Z,6.19
2018-11-04T01:09:32.016Z,6.19
2018-11-04T01:09:58.144Z,6.11
2018-11-04T01:10:24.269Z,6.09
2018-11-04T01:10:50.410Z,6.04
2018-11-04T01:11:16.562Z,6.02
2018-11-04T01:11:42.718Z,6.05
2018-11-04T01:12:08.844Z,5.86
2018-11-04T01:12:34.975Z,5.83
2018-11-04T01:13:01.094Z,5.84
2018-11-04T01:13:27.228Z,5.76
2018-11-04T01:13:53.360Z,5.75
2018-11-04T01:14:19.492Z,5.75
2018-11-04T01:14:45.619Z,5.86
2018-11-04T01:15:11.776Z,5.84
2018-11-04T01:15:37.928Z,5.91
2018-11-04T01:16:04.065Z,5.94
2018-11-04T01:16:30.194Z,6.02
2018-11-04T01:16:56.325Z,6.02
2018-11-04T01:17:22.458Z,6.05
2018-11-04T01:17:48.613Z,6.07
2018-11-04T01:18:14.738Z,6.11
2018-11-04T01:18:40.879Z,5.98
2018-11-04T01:19:06.999Z,5.94
2018-11-04T01:19:33.160Z,5.93
2018-11-04T01:19:59.285Z,5.9
2018-11-04T01:20:25.418Z,5.84
2018-11-04T01:20:51.545Z,5.82
2018-11-04T01:21:17.680Z,5.82
2018-11-04T01:21:43.807Z,5.9
2018-11-04T01:22:09.962Z,5.93
2018-11-04T01:22:36.093Z,5.94
2018-11-04T01:23:02.225Z,5.87
2018-11-04T01:23:28.357Z,5.87
2018-11-04T01:23:54.513Z,5.9
2018-11-04T01:24:20.673Z,5.98
2018-11-04T01:24:46.771Z,5.98
2018-11-04T01:25:12.907Z,5.9
2018-11-04T01:25:39.035Z,5.93
2018-11-04T01:26:05.187Z,5.93
2018-11-04T01:26:31.318Z,5.84
2018-11-04T01:26:57.450Z,5.84
2018-11-04T01:27:23.579Z,5.83
2018-11-04T01:27:49.714Z,5.83
2018-11-04T01:28:15.848Z,5.73
2018-11-04T01:28:41.981Z,5.8
2018-11-04T01:29:08.150Z,5.79
2018-11-04T01:29:34.288Z,5.65
2018-11-04T01:30:00.445Z,5.72
2018-11-04T01:30:26.688Z,5.76
2018-11-04T01:30:52.673Z,5.76
2018-11-04T01:31:18.833Z,5.8
2018-11-04T01:31:44.984Z,5.84
2018-11-04T01:32:11.114Z,5.93
2018-11-04T01:32:37.241Z,5.91
2018-11-04T01:33:03.371Z,5.98
2018-11-04T01:33:29.495Z,5.93
2018-11-04T01:33:55.625Z,5.97
2018-11-04T01:34:21.778Z,5.91
2018-11-04T01:34:47.919Z,5.99
2018-11-04T01:35:14.060Z,5.97
2018-11-04T01:35:40.192Z,5.93
2018-11-04T01:36:06.318Z,6.01
2018-11-04T01:36:32.447Z,5.99
2018-11-04T01:36:58.595Z,5.98
2018-11-04T01:37:24.765Z,6.01
2018-11-04T01:37:50.893Z,5.93
2018-11-04T01:38:17.027Z,5.93
2018-11-04T01:38:43.154Z,5.84
2018-11-04T01:39:09.291Z,5.91
2018-11-04T01:39:35.421Z,5.89
2018-11-04T01:40:01.544Z,5.98
2018-11-04T01:40:27.680Z,5.93
2018-11-04T01:40:53.807Z,6.01
2018-11-04T01:41:19.937Z,5.89
2018-11-04T01:41:46.071Z,6.05
2018-11-04T01:42:12.201Z,6.01
2018-11-04T01:42:38.364Z,6.05
2018-11-04T01:43:04.514Z,6.04
2018-11-04T01:43:30.650Z,6.09
2018-11-04T01:43:56.778Z,6.04
2018-11-04T01:44:22.929Z,6.09
2018-11-04T01:44:49.059Z,6.04
2018-11-04T01:45:15.196Z,5.99
2018-11-04T01:45:41.325Z,6.02
2018-11-04T01:46:07.460Z,6.05
2018-11-04T01:46:33.586Z,6.09
2018-11-04T01:46:59.734Z,6.08
2018-11-04T01:47:25.871Z,6.11
2018-11-04T01:47:51.995Z,6.07
2018-11-04T01:48:18.153Z,6.08
2018-11-04T01:48:44.291Z,6.09
2018-11-04T01:49:10.420Z,6.07
2018-11-04T01:49:36.553Z,6.17
2018-11-04T01:50:02.685Z,6.07
2018-11-04T01:50:28.877Z,6.2
2018-11-04T01:50:55.006Z,6.19
2018-11-04T01:51:21.134Z,6.12
2018-11-04T01:51:47.264Z,6.07
2018-11-04T01:52:13.426Z,6.07
2018-11-04T01:52:39.550Z,6.2
2018-11-04T01:53:05.688Z,6.2
2018-11-04T01:53:31.808Z,6.14
2018-11-04T01:53:57.965Z,6.11
2018-11-04T01:54:24.088Z,6.14
2018-11-04T01:54:50.215Z,6.17
2018-11-04T01:55:16.370Z,6.14
2018-11-04T01:55:42.513Z,6.17
2018-11-04T01:56:08.672Z,6.28
2018-11-04T01:56:34.794Z,6.24
2018-11-04T01:57:00.984Z,6.28
2018-11-04T01:57:27.109Z,6.31
2018-11-04T01:57:53.247Z,6.3
2018-11-04T01:58:19.370Z,6.28
2018-11-04T01:58:45.501Z,6.33
2018-11-04T01:59:11.654Z,6.35
2018-11-04T01:59:37.786Z,6.46
2018-11-04T02:00:03.915Z,6.41
2018-11-04T02:00:30.047Z,6.39
2018-11-04T02:00:56.180Z,6.35
2018-11-04T02:01:22.331Z,6.46
2018-11-04T02:01:48.460Z,6.41
2018-11-04T02:02:14.589Z,6.33
2018-11-04T02:02:40.714Z,6.33
2018-11-04T02:03:06.869Z,6.39
2018-11-04T02:03:33.002Z,6.35
2018-11-04T02:03:59.132Z,6.33
2018-11-04T02:04:25.286Z,6.38
2018-11-04T02:04:51.438Z,6.36
2018-11-04T02:05:17.569Z,6.35
2018-11-04T02:05:43.700Z,6.38
2018-11-04T02:06:09.838Z,6.46
2018-11-04T02:06:35.961Z,6.41
2018-11-04T02:07:02.096Z,6.45
2018-11-04T02:07:28.227Z,6.45
2018-11-04T02:07:54.358Z,6.48
2018-11-04T02:08:20.491Z,6.42
2018-11-04T02:08:46.615Z,6.46
2018-11-04T02:09:12.773Z,6.42
2018-11-04T02:09:38.905Z,6.44
2018-11-04T02:10:05.057Z,6.39
2018-11-04T02:10:31.190Z,6.45
2018-11-04T02:10:57.320Z,6.45
2018-11-04T02:11:23.444Z,6.44
2018-11-04T02:11:49.575Z,6.3
2018-11-04T02:12:15.709Z,6.39
2018-11-04T02:12:41.839Z,6.41
2018-11-04T02:13:07.977Z,6.33
2018-11-04T02:13:34.108Z,6.35
2018-11-04T02:14:00.240Z,6.39
2018-11-04T02:14:26.394Z,6.28
2018-11-04T02:14:52.527Z,6.33
2018-11-04T02:15:18.653Z,6.38
2018-11-04T02:15:44.800Z,6.42
2018-11-04T02:16:10.935Z,6.3
2018-11-04T02:16:37.066Z,6.35
2018-11-04T02:17:03.220Z,6.41
2018-11-04T02:17:29.353Z,6.44
2018-11-04T02:17:55.504Z,6.48
2018-11-04T02:18:21.641Z,6.56
2018-11-04T02:18:47.786Z,6.45
2018-11-04T02:19:13.914Z,6.44
2018-11-04T02:19:40.045Z,6.31
2018-11-04T02:20:06.169Z,6.39
2018-11-04T02:20:32.303Z,6.31
2018-11-04T02:20:58.432Z,6.33
2018-11-04T02:21:24.566Z,6.19
2018-11-04T02:21:50.725Z,6.2
2018-11-04T02:22:16.876Z,6.16
2018-11-04T02:22:43.007Z,6.24
2018-11-04T02:23:09.167Z,6.22
2018-11-04T02:23:35.314Z,6.16
2018-11-04T02:24:01.445Z,6.3
2018-11-04T02:24:27.592Z,6.28
2018-11-04T02:24:53.749Z,6.3
2018-11-04T02:25:19.884Z,6.3
2018-11-04T02:25:46.011Z,6.33
2018-11-04T02:26:12.141Z,6.33
2018-11-04T02:26:38.271Z,6.33
2018-11-04T02:27:04.407Z,6.35
2018-11-04T02:27:30.535Z,6.3
2018-11-04T02:27:56.696Z,6.24
2018-11-04T02:28:22.822Z,6.24
2018-11-04T02:28:48.951Z,6.26
2018-11-04T02:29:15.083Z,6.3
2018-11-04T02:29:41.214Z,6.26
2018-11-04T02:30:07.346Z,6.27
2018-11-04T02:30:33.526Z,6.31
2018-11-04T02:30:59.697Z,6.27
2018-11-04T02:31:25.876Z,6.28
2018-11-04T02:31:52.020Z,6.27
2018-11-04T02:32:18.213Z,6.2
2018-11-04T02:32:44.371Z,6.19
2018-11-04T02:33:10.506Z,6.04
2018-11-04T02:33:36.637Z,6.09
2018-11-04T02:34:02.768Z,6.05
2018-11-04T02:34:28.926Z,6.01
2018-11-04T02:34:55.057Z,6.04
2018-11-04T02:35:21.236Z,6.02
2018-11-04T02:35:47.413Z,5.94
2018-11-04T02:36:13.542Z,6.05
2018-11-04T02:36:39.695Z,5.97
2018-11-04T02:37:05.854Z,5.87
2018-11-04T02:37:31.990Z,5.83
2018-11-04T02:37:58.144Z,5.82
2018-11-04T02:38:24.273Z,5.83
2018-11-04T02:38:50.415Z,5.8
2018-11-04T02:39:16.615Z,5.79
2018-11-04T02:39:42.746Z,5.68
2018-11-04T02:40:08.925Z,5.71
2018-11-04T02:40:35.057Z,5.68
2018-11-04T02:41:01.185Z,5.71
2018-11-04T02:41:27.310Z,5.68
2018-11-04T02:41:53.466Z,5.73
2018-11-04T02:42:19.631Z,5.65
2018-11-04T02:42:45.838Z,5.66
2018-11-04T02:43:11.921Z,5.65
2018-11-04T02:43:38.072Z,5.68
2018-11-04T02:44:04.206Z,5.62
2018-11-04T02:44:30.373Z,5.65
2018-11-04T02:44:56.532Z,5.61
2018-11-04T02:45:22.665Z,5.68
2018-11-04T02:45:48.832Z,5.72
2018-11-04T02:46:15.014Z,5.64
2018-11-04T02:46:41.152Z,5.71
2018-11-04T02:47:07.339Z,5.65
2018-11-04T02:47:33.475Z,5.62
2018-11-04T02:47:59.600Z,5.69
2018-11-04T02:48:25.728Z,5.65
2018-11-04T02:48:51.879Z,5.69
2018-11-04T02:49:18.037Z,5.59
2018-11-04T02:49:44.193Z,5.64
2018-11-04T02:50:10.370Z,5.62
2018-11-04T02:50:36.495Z,5.65
2018-11-04T02:51:02.627Z,5.73
2018-11-04T02:51:28.750Z,5.71
2018-11-04T02:51:54.880Z,5.69
2018-11-04T02:52:21.010Z,5.62
2018-11-04T02:52:47.139Z,5.66
2018-11-04T02:53:13.263Z,5.68
2018-11-04T02:53:39.461Z,5.73
2018-11-04T02:54:05.602Z,5.69
2018-11-04T02:54:31.758Z,5.73
2018-11-04T02:54:57.904Z,5.69
2018-11-04T02:55:24.066Z,5.79
2018-11-04T02:55:50.199Z,5.79
2018-11-04T02:56:16.348Z,5.86
2018-11-04T02:56:42.503Z,5.86
2018-11-04T02:57:08.656Z,5.75
2018-11-04T02:57:34.790Z,5.82
2018-11-04T02:58:00.933Z,5.82
2018-11-04T02:58:27.101Z,5.69
2018-11-04T02:58:53.240Z,5.69
2018-11-04T02:59:19.372Z,5.76
2018-11-04T02:59:45.508Z,5.73
2018-11-04T03:00:11.674Z,5.72
2018-11-04T03:00:37.806Z,5.72
2018-11-04T03:01:03.974Z,5.66
2018-11-04T03:01:30.157Z,5.65
2018-11-04T03:01:56.370Z,5.71
2018-11-04T03:02:22.477Z,5.73
2018-11-04T03:02:48.599Z,5.79
2018-11-04T03:03:14.731Z,5.79
2018-11-04T03:03:40.858Z,5.75
2018-11-04T03:04:07.041Z,5.73
2018-11-04T03:04:33.167Z,5.66
2018-11-04T03:04:59.292Z,5.62
2018-11-04T03:05:25.419Z,5.61
2018-11-04T03:05:51.557Z,5.59
2018-11-04T03:06:17.737Z,5.66
2018-11-04T03:06:43.893Z,5.66
2018-11-04T03:07:10.034Z,5.66
2018-11-04T03:07:36.167Z,5.68
2018-11-04T03:08:02.353Z,5.65
2018-11-04T03:08:28.521Z,5.59
2018-11-04T03:08:54.667Z,5.66
2018-11-04T03:09:20.821Z,5.57
2018-11-04T03:09:46.956Z,5.62
2018-11-04T03:10:13.081Z,5.54
2018-11-04T03:10:39.216Z,5.56
2018-11-04T03:11:05.340Z,5.61
2018-11-04T03:11:31.468Z,5.61
2018-11-04T03:11:57.631Z,5.68
2018-11-04T03:12:23.783Z,5.65
2018-11-04T03:12:49.908Z,5.64
2018-11-04T03:13:16.057Z,5.65
2018-11-04T03:13:42.185Z,5.64
2018-11-04T03:14:08.314Z,5.68
2018-11-04T03:14:34.446Z,5.66
2018-11-04T03:15:00.608Z,5.72
2018-11-04T03:15:26.751Z,5.68
2018-11-04T03:15:52.884Z,5.72
2018-11-04T03:16:19.015Z,5.73
2018-11-04T03:16:45.146Z,5.73
2018-11-04T03:17:11.273Z,5.76
2018-11-04T03:17:37.400Z,5.75
2018-11-04T03:18:03.560Z,5.86
2018-11-04T03:18:29.690Z,5.87
2018-11-04T03:18:55.838Z,5.97
2018-11-04T03:19:21.970Z,5.93
2018-11-04T03:19:48.127Z,5.97
2018-11-04T03:20:14.276Z,5.98
2018-11-04T03:20:40.409Z,5.99
2018-11-04T03:21:06.608Z,6.02
2018-11-04T03:21:32.767Z,6.02
2018-11-04T03:21:58.900Z,6.01
2018-11-04T03:22:25.058Z,6.08
2018-11-04T03:22:51.187Z,6.09
2018-11-04T03:23:17.314Z,6.09
2018-11-04T03:23:43.464Z,6.08
2018-11-04T03:24:09.619Z,6.09
2018-11-04T03:24:35.801Z,6.09
2018-11-04T03:25:01.909Z,6.16
2018-11-04T03:25:28.100Z,6.16
2018-11-04T03:25:54.217Z,6.28
2018-11-04T03:26:20.392Z,6.17
2018-11-04T03:26:46.537Z,6.3
2018-11-04T03:27:12.670Z,6.31
2018-11-04T03:27:38.804Z,6.24
2018-11-04T03:28:04.938Z,6.31
2018-11-04T03:28:31.091Z,6.26
2018-11-04T03:28:57.245Z,6.24
2018-11-04T03:29:23.441Z,6.24
2018-11-04T03:29:49.573Z,6.31
2018-11-04T03:30:15.736Z,6.36
2018-11-04T03:30:41.900Z,6.46
2018-11-04T03:31:08.072Z,6.41
2018-11-04T03:31:34.233Z,6.44
2018-11-04T03:32:00.363Z,6.41
2018-11-04T03:32:26.522Z,6.45
2018-11-04T03:32:52.719Z,6.46
2018-11-04T03:33:18.874Z,6.41
2018-11-04T03:33:45.027Z,6.45
2018-11-04T03:34:11.150Z,6.49
2018-11-04T03:34:37.304Z,6.49
2018-11-04T03:35:03.439Z,6.44
2018-11-04T03:35:29.585Z,6.6
2018-11-04T03:35:55.735Z,6.57
2018-11-04T03:36:21.864Z,6.54
2018-11-04T03:36:48.020Z,6.54
2018-11-04T03:37:14.153Z,6.6
2018-11-04T03:37:40.331Z,6.56
2018-11-04T03:38:06.480Z,6.6
2018-11-04T03:38:32.607Z,6.56
2018-11-04T03:38:58.765Z,6.6
2018-11-04T03:39:24.948Z,6.54
2018-11-04T03:39:51.119Z,6.6
2018-11-04T03:40:17.314Z,6.56
2018-11-04T03:40:43.452Z,6.56
2018-11-04T03:41:09.613Z,6.57
2018-11-04T03:41:35.796Z,6.57
2018-11-04T03:42:01.926Z,6.49
2018-11-04T03:42:28.059Z,6.6
2018-11-04T03:42:54.190Z,6.59
2018-11-04T03:43:20.348Z,6.54
2018-11-04T03:43:46.482Z,6.59
2018-11-04T03:44:12.633Z,6.59
2018-11-04T03:44:38.788Z,6.6
2018-11-04T03:45:04.928Z,6.56
2018-11-04T03:45:31.072Z,6.62
2018-11-04T03:45:57.199Z,6.66
2018-11-04T03:46:23.323Z,6.67
2018-11-04T03:46:49.455Z,6.57
2018-11-04T03:47:15.604Z,6.57
2018-11-04T03:47:41.735Z,6.7
2018-11-04T03:48:07.869Z,6.63
2018-11-04T03:48:34.000Z,6.69
2018-11-04T03:49:00.167Z,6.72
2018-11-04T03:49:26.302Z,6.69
2018-11-04T03:49:52.436Z,6.74
2018-11-04T03:50:18.567Z,6.75
2018-11-04T03:50:44.691Z,6.72
2018-11-04T03:51:10.848Z,6.64
2018-11-04T03:51:36.974Z,6.59
2018-11-04T03:52:03.134Z,6.72
2018-11-04T03:52:29.294Z,6.72
2018-11-04T03:52:55.427Z,6.77
2018-11-04T03:53:21.586Z,6.6
2018-11-04T03:53:47.717Z,6.6
2018-11-04T03:54:13.851Z,6.74
2018-11-04T03:54:40.026Z,6.77
2018-11-04T03:55:06.158Z,6.72
2018-11-04T03:55:32.306Z,6.74
2018-11-04T03:55:58.440Z,6.67
2018-11-04T03:56:24.607Z,6.74
2018-11-04T03:56:50.765Z,6.7
2018-11-04T03:57:16.891Z,6.69
2018-11-04T03:57:43.026Z,6.7
2018-11-04T03:58:09.162Z,6.67
2018-11-04T03:58:35.353Z,6.56
2018-11-04T03:59:01.479Z,6.6
2018-11-04T03:59:27.617Z,6.6
2018-11-04T03:59:53.783Z,6.62
2018-11-04T04:00:19.956Z,6.6
2018-11-04T04:00:46.114Z,6.57
2018-11-04T04:01:12.247Z,6.64
2018-11-04T04:01:38.378Z,6.6
2018-11-04T04:02:04.549Z,6.59
2018-11-04T04:02:30.683Z,6.54
2018-11-04T04:02:56.819Z,6.54
2018-11-04T04:03:22.952Z,6.63
2018-11-04T04:03:49.082Z,6.6
2018-11-04T04:04:15.274Z,6.62
2018-11-04T04:04:41.338Z,6.6
2018-11-04T04:05:07.469Z,6.44
2018-11-04T04:05:33.642Z,6.45
2018-11-04T04:05:59.768Z,6.39
2018-11-04T04:06:25.926Z,6.31
2018-11-04T04:06:52.063Z,6.33
2018-11-04T04:07:18.226Z,6.27
2018-11-04T04:07:44.357Z,6.28
2018-11-04T04:08:10.515Z,6.27
2018-11-04T04:08:36.664Z,6.3
2018-11-04T04:09:02.797Z,6.17
2018-11-04T04:09:28.926Z,6.19
2018-11-04T04:09:55.054Z,6.04
2018-11-04T04:10:21.216Z,6.09
2018-11-04T04:10:47.392Z,6.02
2018-11-04T04:11:13.528Z,5.98
2018-11-04T04:11:39.646Z,6.04
2018-11-04T04:12:05.778Z,5.97
2018-11-04T04:12:31.912Z,5.99
2018-11-04T04:12:58.043Z,5.93
2018-11-04T04:13:24.197Z,5.8
2018-11-04T04:13:50.374Z,5.82
2018-11-04T04:14:16.526Z,5.8
2018-11-04T04:14:42.720Z,5.69
2018-11-04T04:15:08.873Z,5.69
2018-11-04T04:15:35.008Z,5.72
2018-11-04T04:16:01.168Z,5.82
2018-11-04T04:16:27.295Z,5.82
2018-11-04T04:16:53.478Z,5.76
2018-11-04T04:17:19.635Z,5.62
2018-11-04T04:17:45.772Z,5.72
2018-11-04T04:18:11.899Z,5.69
2018-11-04T04:18:38.033Z,5.64
2018-11-04T04:19:04.188Z,5.64
2018-11-04T04:19:30.320Z,5.59
2018-11-04T04:19:56.480Z,5.66
2018-11-04T04:20:22.614Z,5.66
2018-11-04T04:20:48.750Z,5.59
2018-11-04T04:21:14.905Z,5.65
2018-11-04T04:21:41.032Z,5.66
2018-11-04T04:22:07.221Z,5.69
2018-11-04T04:22:33.366Z,5.72
2018-11-04T04:22:59.533Z,5.79
2018-11-04T04:23:25.670Z,5.76
2018-11-04T04:23:51.814Z,5.8
2018-11-04T04:24:17.945Z,5.79
2018-11-04T04:24:44.074Z,5.82
2018-11-04T04:25:10.249Z,5.87
2018-11-04T04:25:36.380Z,5.86
2018-11-04T04:26:02.510Z,5.89
2018-11-04T04:26:28.667Z,5.98
2018-11-04T04:26:54.793Z,5.97
2018-11-04T04:27:20.947Z,6.01
2018-11-04T04:27:47.077Z,5.97
2018-11-04T04:28:13.212Z,6.01
2018-11-04T04:28:39.342Z,6.05
2018-11-04T04:29:05.494Z,6.02
2018-11-04T04:29:31.642Z,6.07
2018-11-04T04:29:57.769Z,6.05
2018-11-04T04:30:23.904Z,6.02
2018-11-04T04:30:50.034Z,5.97
2018-11-04T04:31:16.172Z,5.98
2018-11-04T04:31:42.318Z,5.97
2018-11-04T04:32:08.452Z,5.91
2018-11-04T04:32:34.580Z,5.91
2018-11-04T04:33:00.758Z,5.86
2018-11-04T04:33:26.909Z,5.86
2018-11-04T04:33:53.039Z,5.79
2018-11-04T04:34:19.164Z,5.89
2018-11-04T04:34:45.345Z,5.79
2018-11-04T04:35:11.510Z,5.71
2018-11-04T04:35:37.637Z,5.8
2018-11-04T04:36:03.788Z,5.79
2018-11-04T04:36:29.927Z,5.75
2018-11-04T04:36:56.049Z,5.68
2018-11-04T04:37:22.174Z,5.66
2018-11-04T04:37:48.313Z,5.71
2018-11-04T04:38:14.464Z,5.79
2018-11-04T04:38:40.645Z,5.8
2018-11-04T04:39:06.779Z,5.86
2018-11-04T04:39:32.939Z,5.89
2018-11-04T04:39:59.069Z,5.89
2018-11-04T04:40:25.197Z,5.89
2018-11-04T04:40:51.325Z,5.93
2018-11-04T04:41:17.476Z,5.97
2018-11-04T04:41:43.627Z,5.91
2018-11-04T04:42:09.783Z,6.04
2018-11-04T04:42:35.963Z,5.97
2018-11-04T04:43:02.093Z,5.94
2018-11-04T04:43:28.243Z,5.98
2018-11-04T04:43:54.371Z,5.94
2018-11-04T04:44:20.564Z,5.97
2018-11-04T04:44:46.697Z,5.98
2018-11-04T04:45:12.853Z,5.89
2018-11-04T04:45:39.009Z,5.84
2018-11-04T04:46:05.135Z,5.82
2018-11-04T04:46:31.268Z,5.82
2018-11-04T04:46:57.391Z,5.75
2018-11-04T04:47:23.562Z,5.71
2018-11-04T04:47:49.719Z,5.82
2018-11-04T04:48:15.868Z,5.75
2018-11-04T04:48:41.995Z,5.89
2018-11-04T04:49:08.175Z,5.94
2018-11-04T04:49:34.351Z,5.9
2018-11-04T04:50:00.476Z,5.9
2018-11-04T04:50:26.632Z,5.94
2018-11-04T04:50:52.777Z,5.91
2018-11-04T04:51:18.931Z,6.04
2018-11-04T04:51:45.064Z,6.04
2018-11-04T04:52:11.196Z,6.01
2018-11-04T04:52:37.318Z,6.02
2018-11-04T04:53:03.501Z,6.04
2018-11-04T04:53:29.685Z,6.01
2018-11-04T04:53:55.855Z,6.04
2018-11-04T04:54:22.000Z,6.01
2018-11-04T04:54:48.162Z,6.04
2018-11-04T04:55:14.288Z,5.91
2018-11-04T04:55:40.417Z,5.99
2018-11-04T04:56:06.567Z,5.93
2018-11-04T04:56:32.705Z,5.94
2018-11-04T04:56:58.847Z,5.84
2018-11-04T04:57:25.004Z,5.87
2018-11-04T04:57:51.154Z,5.83
2018-11-04T04:58:17.320Z,5.97
2018-11-04T04:58:43.441Z,5.82
2018-11-04T04:59:09.573Z,5.87
2018-11-04T04:59:35.732Z,5.83
2018-11-04T05:00:01.859Z,5.84
2018-11-04T05:00:27.995Z,5.79
2018-11-04T05:00:54.116Z,5.83
2018-11-04T05:01:20.282Z,5.83
2018-11-04T05:01:46.410Z,5.8
2018-11-04T05:02:12.538Z,5.8
2018-11-04T05:02:38.692Z,5.76
2018-11-04T05:03:04.853Z,5.71
2018-11-04T05:03:31.005Z,5.69
2018-11-04T05:03:57.133Z,5.71
2018-11-04T05:04:23.262Z,5.72
2018-11-04T05:04:49.387Z,5.76
2018-11-04T05:05:15.527Z,5.79
2018-11-04T05:05:41.653Z,5.76
2018-11-04T05:06:07.787Z,5.83
2018-11-04T05:06:33.921Z,5.83
2018-11-04T05:07:00.053Z,5.8
2018-11-04T05:07:26.211Z,5.73
2018-11-04T05:07:52.356Z,5.72
2018-11-04T05:08:18.496Z,5.73
2018-11-04T05:08:44.622Z,5.69
2018-11-04T05:09:10.748Z,5.73
2018-11-04T05:09:36.878Z,5.69
2018-11-04T05:10:03.010Z,5.68
2018-11-04T05:10:29.138Z,5.68
2018-11-04T05:10:55.292Z,5.72
2018-11-04T05:11:21.421Z,5.66
2018-11-04T05:11:47.594Z,5.68
2018-11-04T05:12:13.731Z,5.69
2018-11-04T05:12:39.885Z,5.76
2018-11-04T05:13:06.011Z,5.73
2018-11-04T05:13:32.136Z,5.75
2018-11-04T05:13:58.322Z,5.69
2018-11-04T05:14:24.444Z,5.66
2018-11-04T05:14:50.587Z,5.69
2018-11-04T05:15:16.714Z,5.65
2018-11-04T05:15:42.848Z,5.66
2018-11-04T05:16:08.972Z,5.66
2018-11-04T05:16:35.130Z,5.66
2018-11-04T05:17:01.281Z,5.71
2018-11-04T05:17:27.425Z,5.73
2018-11-04T05:17:53.582Z,5.72
2018-11-04T05:18:19.738Z,5.69
2018-11-04T05:18:45.874Z,5.68
2018-11-04T05:19:12.023Z,5.65
2018-11-04T05:19:38.178Z,5.75
2018-11-04T05:20:04.311Z,5.79
2018-11-04T05:20:30.433Z,5.83
2018-11-04T05:20:56.570Z,5.69
2018-11-04T05:21:22.722Z,5.82
2018-11-04T05:21:48.854Z,5.69
2018-11-04T05:22:14.975Z,5.69
2018-11-04T05:22:41.105Z,5.76
2018-11-04T05:23:07.265Z,5.69
2018-11-04T05:23:33.397Z,5.76
2018-11-04T05:23:59.528Z,5.75
2018-11-04T05:24:25.680Z,5.82
2018-11-04T05:24:51.859Z,5.98
2018-11-04T05:25:18.013Z,5.99
2018-11-04T05:25:44.188Z,5.98
2018-11-04T05:26:10.338Z,5.93
2018-11-04T05:26:36.467Z,6.04
2018-11-04T05:27:02.597Z,6.01
2018-11-04T05:27:28.727Z,6.07
2018-11-04T05:27:54.852Z,6.09
2018-11-04T05:28:20.981Z,6.08
2018-11-04T05:28:47.105Z,6.08
2018-11-04T05:29:13.231Z,6.19
2018-11-04T05:29:39.370Z,6.24
2018-11-04T05:30:05.518Z,6.19
2018-11-04T05:30:31.648Z,6.27
2018-11-04T05:30:57.802Z,6.2
2018-11-04T05:31:23.931Z,6.24
2018-11-04T05:31:50.062Z,6.28
2018-11-04T05:32:16.188Z,6.16
2018-11-04T05:32:42.321Z,6.26
2018-11-04T05:33:08.450Z,6.22
2018-11-04T05:33:34.583Z,6.17
2018-11-04T05:34:00.737Z,6.26
2018-11-04T05:34:26.868Z,6.17
2018-11-04T05:34:53.003Z,6.14
2018-11-04T05:35:19.127Z,6.14
2018-11-04T05:35:45.263Z,6.16
2018-11-04T05:36:11.392Z,6.28
2018-11-04T05:36:37.544Z,6.17
2018-11-04T05:37:03.673Z,6.19
2018-11-04T05:37:29.803Z,6.26
2018-11-04T05:37:55.979Z,6.26
2018-11-04T05:38:22.283Z,6.22
2018-11-04T05:38:48.263Z,6.3
2018-11-04T05:39:14.397Z,6.35
2018-11-04T05:39:40.548Z,6.27
2018-11-04T05:40:06.685Z,6.22
2018-11-04T05:40:32.815Z,6.2
2018-11-04T05:40:58.941Z,6.17
2018-11-04T05:41:25.080Z,6.14
2018-11-04T05:41:51.203Z,6.07
2018-11-04T05:42:17.338Z,6.09
2018-11-04T05:42:43.461Z,6.01
2018-11-04T05:43:09.595Z,6.01
2018-11-04T05:43:35.722Z,5.93
2018-11-04T05:44:01.852Z,5.93
2018-11-04T05:44:27.981Z,5.9
2018-11-04T05:44:54.112Z,5.89
2018-11-04T05:45:20.247Z,5.97
2018-11-04T05:45:46.406Z,5.89
2018-11-04T05:46:12.577Z,5.86
2018-11-04T05:46:38.706Z,5.89
2018-11-04T05:47:04.842Z,5.93
2018-11-04T05:47:30.960Z,5.89
2018-11-04T05:47:57.093Z,5.86
2018-11-04T05:48:23.219Z,5.91
2018-11-04T05:48:49.360Z,5.91